Aviation Digital Data Service (ADDS)

Output produced by METARs form (1343 UTC 25 June 2019)
found at http://www.aviationweather.gov/metar/data/
 
METAR text: GCXO 251330Z 29008KT 260V320 9000 4000NW BCFG SCT004 BKN020 19/18 Q1021 NOSIG
Conditions at: GCXO (TENERIFE/LOS ROD, ES) observed 1330 UTC 25 June 2019
Temperature: 19.0°C (66°F)
Dewpoint: 18.0°C (64°F) [RH = 94%]
Pressure (altimeter): 30.15 inches Hg (1021.0 mb)
Winds: from the WNW (290 degrees) at 9 MPH (8 knots; 4.1 m/s)
Visibility: 6 miles ( 9 km)
Ceiling: 2000 feet AGL
Clouds: scattered clouds at 400 feet AGL
broken clouds at 2000 feet AGL
Weather: BCFG  (patches of fog)

METAR text: GCXO 251300Z 29008KT 260V320 8000 3900NW BCFG OVC004 19/18 Q1021 NOSIG
Conditions at: GCXO (TENERIFE/LOS ROD, ES) observed 1300 UTC 25 June 2019
Temperature: 19.0°C (66°F)
Dewpoint: 18.0°C (64°F) [RH = 94%]
Pressure (altimeter): 30.15 inches Hg (1021.0 mb)
Winds: from the WNW (290 degrees) at 9 MPH (8 knots; 4.1 m/s)
Visibility: 5 miles ( 8 km)
Ceiling: 400 feet AGL
Clouds: overcast cloud deck at 400 feet AGL
Weather: BCFG  (patches of fog)

METAR text: GCXO 251230Z 30008KT 5000 2000NW PRFG OVC004 18/18 Q1021 NOSIG
Conditions at: GCXO (TENERIFE/LOS ROD, ES) observed 1230 UTC 25 June 2019
Temperature: 18.0°C (64°F)
Dewpoint: 18.0°C (64°F) [RH = 100%]
Pressure (altimeter): 30.15 inches Hg (1021.0 mb)
Winds: from the WNW (300 degrees) at 9 MPH (8 knots; 4.1 m/s)
Visibility: 3 miles ( 5 km)
Ceiling: 400 feet AGL
Clouds: overcast cloud deck at 400 feet AGL
Weather: PRFG  (partial fog)

METAR text: GCXO 251200Z 33007KT 5000 1300NW R30/P2000 R12/0800D PRFG OVC003 19/19 Q1021 NOSIG
Conditions at: GCXO (TENERIFE/LOS ROD, ES) observed 1200 UTC 25 June 2019
Temperature: 19.0°C (66°F)
Dewpoint: 19.0°C (66°F) [RH = 100%]
Pressure (altimeter): 30.15 inches Hg (1021.0 mb)
Winds: from the NNW (330 degrees) at 8 MPH (7 knots; 3.6 m/s)
Visibility: 3 miles ( 5 km)
Ceiling: 300 feet AGL
Clouds: overcast cloud deck at 300 feet AGL
Weather: PRFG  (partial fog)

METAR text: GCXO 251130Z 32006KT 280V350 3500 1000NW PRFG OVC003 19/19 Q1020 NOSIG
Conditions at: GCXO (TENERIFE/LOS ROD, ES) observed 1130 UTC 25 June 2019
Temperature: 19.0°C (66°F)
Dewpoint: 19.0°C (66°F) [RH = 100%]
Pressure (altimeter): 30.12 inches Hg (1020.0 mb)
Winds: from the NW (320 degrees) at 7 MPH (6 knots; 3.1 m/s)
Visibility: 2.17 miles (3.49 km)
Ceiling: 300 feet AGL
Clouds: overcast cloud deck at 300 feet AGL
Weather: PRFG  (partial fog)

METAR text: GCXO 251100Z 30007KT 280V340 3200 0700NW PRFG OVC002 18/18 Q1020 NOSIG
Conditions at: GCXO (TENERIFE/LOS ROD, ES) observed 1100 UTC 25 June 2019
Temperature: 18.0°C (64°F)
Dewpoint: 18.0°C (64°F) [RH = 100%]
Pressure (altimeter): 30.12 inches Hg (1020.0 mb)
Winds: from the WNW (300 degrees) at 8 MPH (7 knots; 3.6 m/s)
Visibility: 1.99 miles (3.20 km)
Ceiling: 200 feet AGL
Clouds: overcast cloud deck at 200 feet AGL
Weather: PRFG  (partial fog)

METAR text: GCXO 251030Z 30010KT 3200 0700NW PRFG OVC002 19/19 Q1020 NOSIG
Conditions at: GCXO (TENERIFE/LOS ROD, ES) observed 1030 UTC 25 June 2019
Temperature: 19.0°C (66°F)
Dewpoint: 19.0°C (66°F) [RH = 100%]
Pressure (altimeter): 30.12 inches Hg (1020.0 mb)
Winds: from the WNW (300 degrees) at 12 MPH (10 knots; 5.1 m/s)
Visibility: 1.99 miles (3.20 km)
Ceiling: 200 feet AGL
Clouds: overcast cloud deck at 200 feet AGL
Weather: PRFG  (partial fog)

METAR text: GCXO 251000Z 30008KT 3500 0500NW R30/P2000 R12/0650N PRFG OVC002 19/19 Q1020 NOSIG
Conditions at: GCXO (TENERIFE/LOS ROD, ES) observed 1000 UTC 25 June 2019
Temperature: 19.0°C (66°F)
Dewpoint: 19.0°C (66°F) [RH = 100%]
Pressure (altimeter): 30.12 inches Hg (1020.0 mb)
Winds: from the WNW (300 degrees) at 9 MPH (8 knots; 4.1 m/s)
Visibility: 2.17 miles (3.49 km)
Ceiling: 200 feet AGL
Clouds: overcast cloud deck at 200 feet AGL
Weather: PRFG  (partial fog)

METAR text: GCXO 250930Z 31008KT 280V350 3000 0500NW R30/P2000 R12/0500N PRFG OVC002 18/18 Q1020 NOSIG
Conditions at: GCXO (TENERIFE/LOS ROD, ES) observed 0930 UTC 25 June 2019
Temperature: 18.0°C (64°F)
Dewpoint: 18.0°C (64°F) [RH = 100%]
Pressure (altimeter): 30.12 inches Hg (1020.0 mb)
Winds: from the NW (310 degrees) at 9 MPH (8 knots; 4.1 m/s)
Visibility: 1.86 miles (2.99 km)
Ceiling: 200 feet AGL
Clouds: overcast cloud deck at 200 feet AGL
Weather: PRFG  (partial fog)

METAR text: GCXO 250900Z 30009KT 1000 R30/1900N R12/0500D PRFG OVC003 19/19 Q1020 NOSIG
Conditions at: GCXO (TENERIFE/LOS ROD, ES) observed 0900 UTC 25 June 2019
Temperature: 19.0°C (66°F)
Dewpoint: 19.0°C (66°F) [RH = 100%]
Pressure (altimeter): 30.12 inches Hg (1020.0 mb)
Winds: from the WNW (300 degrees) at 10 MPH (9 knots; 4.6 m/s)
Visibility: 0.62 miles (1.00 km)
Ceiling: 300 feet AGL
Clouds: overcast cloud deck at 300 feet AGL
Weather: PRFG  (partial fog)

METAR text: GCXO 250830Z 30009KT 2000 -DZ OVC003 19/19 Q1020 NOSIG
Conditions at: GCXO (TENERIFE/LOS ROD, ES) observed 0830 UTC 25 June 2019
Temperature: 19.0°C (66°F)
Dewpoint: 19.0°C (66°F) [RH = 100%]
Pressure (altimeter): 30.12 inches Hg (1020.0 mb)
Winds: from the WNW (300 degrees) at 10 MPH (9 knots; 4.6 m/s)
Visibility: 1.24 miles (2.00 km)
Ceiling: 300 feet AGL
Clouds: overcast cloud deck at 300 feet AGL
Weather: -DZ  (light drizzle)

METAR text: GCXO 250800Z 31009KT 1100 R30/P2000 R12/1600U -DZ OVC002 18/18 Q1019 NOSIG
Conditions at: GCXO (TENERIFE/LOS ROD, ES) observed 0800 UTC 25 June 2019
Temperature: 18.0°C (64°F)
Dewpoint: 18.0°C (64°F) [RH = 100%]
Pressure (altimeter): 30.09 inches Hg (1019.0 mb)
Winds: from the NW (310 degrees) at 10 MPH (9 knots; 4.6 m/s)
Visibility: 0.68 miles (1.09 km)
Ceiling: 200 feet AGL
Clouds: overcast cloud deck at 200 feet AGL
Weather: -DZ  (light drizzle)

METAR text: GCXO 250730Z 31008KT 1100 R30/P2000 R12/1000D -DZ OVC002 18/18 Q1019 NOSIG
Conditions at: GCXO (TENERIFE/LOS ROD, ES) observed 0730 UTC 25 June 2019
Temperature: 18.0°C (64°F)
Dewpoint: 18.0°C (64°F) [RH = 100%]
Pressure (altimeter): 30.09 inches Hg (1019.0 mb)
Winds: from the NW (310 degrees) at 9 MPH (8 knots; 4.1 m/s)
Visibility: 0.68 miles (1.09 km)
Ceiling: 200 feet AGL
Clouds: overcast cloud deck at 200 feet AGL
Weather: -DZ  (light drizzle)

METAR text: GCXO 250700Z 30009KT 1100 R30/1900N R12/1600U -DZ OVC002 19/19 Q1019 NOSIG
Conditions at: GCXO (TENERIFE/LOS ROD, ES) observed 0700 UTC 25 June 2019
Temperature: 19.0°C (66°F)
Dewpoint: 19.0°C (66°F) [RH = 100%]
Pressure (altimeter): 30.09 inches Hg (1019.0 mb)
Winds: from the WNW (300 degrees) at 10 MPH (9 knots; 4.6 m/s)
Visibility: 0.68 miles (1.09 km)
Ceiling: 200 feet AGL
Clouds: overcast cloud deck at 200 feet AGL
Weather: -DZ  (light drizzle)

METAR text: GCXO 250630Z 28009KT 1100 R30/P2000 R12/1900N -DZ OVC002 18/18 Q1018 NOSIG
Conditions at: GCXO (TENERIFE/LOS ROD, ES) observed 0630 UTC 25 June 2019
Temperature: 18.0°C (64°F)
Dewpoint: 18.0°C (64°F) [RH = 100%]
Pressure (altimeter): 30.06 inches Hg (1018.0 mb)
Winds: from the W (280 degrees) at 10 MPH (9 knots; 4.6 m/s)
Visibility: 0.68 miles (1.09 km)
Ceiling: 200 feet AGL
Clouds: overcast cloud deck at 200 feet AGL
Weather: -DZ  (light drizzle)

METAR text: GCXO 250600Z 29007KT 250V320 1900 -DZ OVC002 18/18 Q1018 NOSIG
Conditions at: GCXO (TENERIFE/LOS ROD, ES) observed 0600 UTC 25 June 2019
Temperature: 18.0°C (64°F)
Dewpoint: 18.0°C (64°F) [RH = 100%]
Pressure (altimeter): 30.06 inches Hg (1018.0 mb)
Winds: from the WNW (290 degrees) at 8 MPH (7 knots; 3.6 m/s)
Visibility: 1.18 miles (1.90 km)
Ceiling: 200 feet AGL
Clouds: overcast cloud deck at 200 feet AGL
Weather: -DZ  (light drizzle)

METAR text: GCXO 250530Z 30007KT 1200 R30/P2000 R12/P2000 -DZ OVC002 19/19 Q1018 NOSIG
Conditions at: GCXO (TENERIFE/LOS ROD, ES) observed 0530 UTC 25 June 2019
Temperature: 19.0°C (66°F)
Dewpoint: 19.0°C (66°F) [RH = 100%]
Pressure (altimeter): 30.06 inches Hg (1018.0 mb)
Winds: from the WNW (300 degrees) at 8 MPH (7 knots; 3.6 m/s)
Visibility: 0.75 miles (1.21 km)
Ceiling: 200 feet AGL
Clouds: overcast cloud deck at 200 feet AGL
Weather: -DZ  (light drizzle)

METAR text: GCXO 250500Z 28006KT 2000 DZ OVC003 19/19 Q1018 NOSIG
Conditions at: GCXO (TENERIFE/LOS ROD, ES) observed 0500 UTC 25 June 2019
Temperature: 19.0°C (66°F)
Dewpoint: 19.0°C (66°F) [RH = 100%]
Pressure (altimeter): 30.06 inches Hg (1018.0 mb)
Winds: from the W (280 degrees) at 7 MPH (6 knots; 3.1 m/s)
Visibility: 1.24 miles (2.00 km)
Ceiling: 300 feet AGL
Clouds: overcast cloud deck at 300 feet AGL
Weather: DZ  (moderate drizzle)

METAR text: GCXO 250430Z AUTO 30007KT 4100 1100NW -RA BR VV003 19/19 Q1018
Conditions at: GCXO (TENERIFE/LOS ROD, ES) observed 0430 UTC 25 June 2019
Temperature: 19.0°C (66°F)
Dewpoint: 19.0°C (66°F) [RH = 100%]
Pressure (altimeter): 30.06 inches Hg (1018.0 mb)
Winds: from the WNW (300 degrees) at 8 MPH (7 knots; 3.6 m/s)
Visibility: 2.55 miles (4.10 km)
Ceiling: indefinite ceiling with vertical visibility of 300 feet AGL
Clouds: obscured sky
Weather: -RA BR  (light rain, mist)

METAR text: GCXO 250400Z AUTO 29007KT 4200 1800NW BR FEW003 SCT007 BKN016 19/19 Q1018
Conditions at: GCXO (TENERIFE/LOS ROD, ES) observed 0400 UTC 25 June 2019
Temperature: 19.0°C (66°F)
Dewpoint: 19.0°C (66°F) [RH = 100%]
Pressure (altimeter): 30.06 inches Hg (1018.0 mb)
Winds: from the WNW (290 degrees) at 8 MPH (7 knots; 3.6 m/s)
Visibility: 2.61 miles (4.20 km)
Ceiling: 1600 feet AGL
Clouds: few clouds at 300 feet AGL
scattered clouds at 700 feet AGL
broken clouds at 1600 feet AGL
Weather: BR  (mist)

METAR text: GCXO 250330Z AUTO 30009KT 9999 2500NW VV009 18/18 Q1018
Conditions at: GCXO (TENERIFE/LOS ROD, ES) observed 0330 UTC 25 June 2019
Temperature: 18.0°C (64°F)
Dewpoint: 18.0°C (64°F) [RH = 100%]
Pressure (altimeter): 30.06 inches Hg (1018.0 mb)
Winds: from the WNW (300 degrees) at 10 MPH (9 knots; 4.6 m/s)
Visibility: 6 or more miles (10+ km)
Ceiling: indefinite ceiling with vertical visibility of 900 feet AGL
Clouds: obscured sky
Weather: no significant weather observed at this time

METAR text: GCXO 250300Z AUTO 29009KT 9999 4500NW FEW005 BKN010 19/19 Q1018
Conditions at: GCXO (TENERIFE/LOS ROD, ES) observed 0300 UTC 25 June 2019
Temperature: 19.0°C (66°F)
Dewpoint: 19.0°C (66°F) [RH = 100%]
Pressure (altimeter): 30.06 inches Hg (1018.0 mb)
Winds: from the WNW (290 degrees) at 10 MPH (9 knots; 4.6 m/s)
Visibility: 6 or more miles (10+ km)
Ceiling: 1000 feet AGL
Clouds: few clouds at 500 feet AGL
broken clouds at 1000 feet AGL
Weather: no significant weather observed at this time

METAR text: GCXO 250230Z AUTO 28006KT 9999 FEW003 BKN008 18/18 Q1019
Conditions at: GCXO (TENERIFE/LOS ROD, ES) observed 0230 UTC 25 June 2019
Temperature: 18.0°C (64°F)
Dewpoint: 18.0°C (64°F) [RH = 100%]
Pressure (altimeter): 30.09 inches Hg (1019.0 mb)
Winds: from the W (280 degrees) at 7 MPH (6 knots; 3.1 m/s)
Visibility: 6 or more miles (10+ km)
Ceiling: 800 feet AGL
Clouds: few clouds at 300 feet AGL
broken clouds at 800 feet AGL
Weather: no significant weather observed at this time

METAR text: GCXO 250200Z AUTO 27005KT 9999 4500NW OVC007 19/18 Q1019
Conditions at: GCXO (TENERIFE/LOS ROD, ES) observed 0200 UTC 25 June 2019
Temperature: 19.0°C (66°F)
Dewpoint: 18.0°C (64°F) [RH = 94%]
Pressure (altimeter): 30.09 inches Hg (1019.0 mb)
Winds: from the W (270 degrees) at 6 MPH (5 knots; 2.6 m/s)
Visibility: 6 or more miles (10+ km)
Ceiling: 700 feet AGL
Clouds: overcast cloud deck at 700 feet AGL
Weather: no significant weather observed at this time

METAR text: GCXO 250130Z AUTO 26004KT 190V300 9999 OVC007 19/18 Q1019
Conditions at: GCXO (TENERIFE/LOS ROD, ES) observed 0130 UTC 25 June 2019
Temperature: 19.0°C (66°F)
Dewpoint: 18.0°C (64°F) [RH = 94%]
Pressure (altimeter): 30.09 inches Hg (1019.0 mb)
Winds: from the W (260 degrees) at 5 MPH (4 knots; 2.1 m/s)
Visibility: 6 or more miles (10+ km)
Ceiling: 700 feet AGL
Clouds: overcast cloud deck at 700 feet AGL
Weather: no significant weather observed at this time

METAR text: GCXO 250100Z AUTO 28007KT 9999 SCT009 18/17 Q1019
Conditions at: GCXO (TENERIFE/LOS ROD, ES) observed 0100 UTC 25 June 2019
Temperature: 18.0°C (64°F)
Dewpoint: 17.0°C (63°F) [RH = 94%]
Pressure (altimeter): 30.09 inches Hg (1019.0 mb)
Winds: from the W (280 degrees) at 8 MPH (7 knots; 3.6 m/s)
Visibility: 6 or more miles (10+ km)
Ceiling: at least 12,000 feet AGL
Clouds: scattered clouds at 900 feet AGL
Weather: no significant weather observed at this time

METAR text: GCXO 250030Z AUTO 27008KT 240V300 9999 BKN002 18/18 Q1020
Conditions at: GCXO (TENERIFE/LOS ROD, ES) observed 0030 UTC 25 June 2019
Temperature: 18.0°C (64°F)
Dewpoint: 18.0°C (64°F) [RH = 100%]
Pressure (altimeter): 30.12 inches Hg (1020.0 mb)
Winds: from the W (270 degrees) at 9 MPH (8 knots; 4.1 m/s)
Visibility: 6 or more miles (10+ km)
Ceiling: 200 feet AGL
Clouds: broken clouds at 200 feet AGL
Weather: no significant weather observed at this time

METAR text: GCXO 250000Z AUTO 28006KT 9999 FEW004 18/18 Q1020
Conditions at: GCXO (TENERIFE/LOS ROD, ES) observed 0000 UTC 25 June 2019
Temperature: 18.0°C (64°F)
Dewpoint: 18.0°C (64°F) [RH = 100%]
Pressure (altimeter): 30.12 inches Hg (1020.0 mb)
Winds: from the W (280 degrees) at 7 MPH (6 knots; 3.1 m/s)
Visibility: 6 or more miles (10+ km)
Ceiling: at least 12,000 feet AGL
Clouds: few clouds at 400 feet AGL
Weather: no significant weather observed at this time

METAR text: GCXO 242330Z AUTO 28006KT 9999 NCD 18/17 Q1020
Conditions at: GCXO (TENERIFE/LOS ROD, ES) observed 2330 UTC 24 June 2019
Temperature: 18.0°C (64°F)
Dewpoint: 17.0°C (63°F) [RH = 94%]
Pressure (altimeter): 30.12 inches Hg (1020.0 mb)
Winds: from the W (280 degrees) at 7 MPH (6 knots; 3.1 m/s)
Visibility: 6 or more miles (10+ km)
Ceiling: at least 12,000 feet AGL
Clouds: sky clear below 12,000 feet AGL
Weather: no significant weather observed at this time

METAR text: GCXO 242300Z AUTO 28010KT 9999 FEW007 18/18 Q1020
Conditions at: GCXO (TENERIFE/LOS ROD, ES) observed 2300 UTC 24 June 2019
Temperature: 18.0°C (64°F)
Dewpoint: 18.0°C (64°F) [RH = 100%]
Pressure (altimeter): 30.12 inches Hg (1020.0 mb)
Winds: from the W (280 degrees) at 12 MPH (10 knots; 5.1 m/s)
Visibility: 6 or more miles (10+ km)
Ceiling: at least 12,000 feet AGL
Clouds: few clouds at 700 feet AGL
Weather: no significant weather observed at this time

METAR text: GCXO 242230Z AUTO 28008KT 9999 NCD 18/17 Q1020
Conditions at: GCXO (TENERIFE/LOS ROD, ES) observed 2230 UTC 24 June 2019
Temperature: 18.0°C (64°F)
Dewpoint: 17.0°C (63°F) [RH = 94%]
Pressure (altimeter): 30.12 inches Hg (1020.0 mb)
Winds: from the W (280 degrees) at 9 MPH (8 knots; 4.1 m/s)
Visibility: 6 or more miles (10+ km)
Ceiling: at least 12,000 feet AGL
Clouds: sky clear below 12,000 feet AGL
Weather: no significant weather observed at this time

METAR text: GCXO 242200Z 28010KT 9999 FEW001 18/18 Q1020 NOSIG
Conditions at: GCXO (TENERIFE/LOS ROD, ES) observed 2200 UTC 24 June 2019
Temperature: 18.0°C (64°F)
Dewpoint: 18.0°C (64°F) [RH = 100%]
Pressure (altimeter): 30.12 inches Hg (1020.0 mb)
Winds: from the W (280 degrees) at 12 MPH (10 knots; 5.1 m/s)
Visibility: 6 or more miles (10+ km)
Ceiling: at least 12,000 feet AGL
Clouds: few clouds at 100 feet AGL
Weather: no significant weather observed at this time

METAR text: GCXO 242130Z 28009KT 9999 FEW001 18/18 Q1019 NOSIG
Conditions at: GCXO (TENERIFE/LOS ROD, ES) observed 2130 UTC 24 June 2019
Temperature: 18.0°C (64°F)
Dewpoint: 18.0°C (64°F) [RH = 100%]
Pressure (altimeter): 30.09 inches Hg (1019.0 mb)
Winds: from the W (280 degrees) at 10 MPH (9 knots; 4.6 m/s)
Visibility: 6 or more miles (10+ km)
Ceiling: at least 12,000 feet AGL
Clouds: few clouds at 100 feet AGL
Weather: no significant weather observed at this time

METAR text: GCXO 242100Z 28006KT 9999 FEW001 19/18 Q1019 NOSIG
Conditions at: GCXO (TENERIFE/LOS ROD, ES) observed 2100 UTC 24 June 2019
Temperature: 19.0°C (66°F)
Dewpoint: 18.0°C (64°F) [RH = 94%]
Pressure (altimeter): 30.09 inches Hg (1019.0 mb)
Winds: from the W (280 degrees) at 7 MPH (6 knots; 3.1 m/s)
Visibility: 6 or more miles (10+ km)
Ceiling: at least 12,000 feet AGL
Clouds: few clouds at 100 feet AGL
Weather: no significant weather observed at this time

METAR text: GCXO 242030Z 28005KT 240V300 9999 FEW001 18/17 Q1019 NOSIG
Conditions at: GCXO (TENERIFE/LOS ROD, ES) observed 2030 UTC 24 June 2019
Temperature: 18.0°C (64°F)
Dewpoint: 17.0°C (63°F) [RH = 94%]
Pressure (altimeter): 30.09 inches Hg (1019.0 mb)
Winds: from the W (280 degrees) at 6 MPH (5 knots; 2.6 m/s)
Visibility: 6 or more miles (10+ km)
Ceiling: at least 12,000 feet AGL
Clouds: few clouds at 100 feet AGL
Weather: no significant weather observed at this time

METAR text: GCXO 242000Z 29007KT 9999 FEW002 19/17 Q1019 NOSIG
Conditions at: GCXO (TENERIFE/LOS ROD, ES) observed 2000 UTC 24 June 2019
Temperature: 19.0°C (66°F)
Dewpoint: 17.0°C (63°F) [RH = 88%]
Pressure (altimeter): 30.09 inches Hg (1019.0 mb)
Winds: from the WNW (290 degrees) at 8 MPH (7 knots; 3.6 m/s)
Visibility: 6 or more miles (10+ km)
Ceiling: at least 12,000 feet AGL
Clouds: few clouds at 200 feet AGL
Weather: no significant weather observed at this time

METAR text: GCXO 241930Z 30009KT 260V340 9999 FEW002 SCT015 20/17 Q1019 NOSIG
Conditions at: GCXO (TENERIFE/LOS ROD, ES) observed 1930 UTC 24 June 2019
Temperature: 20.0°C (68°F)
Dewpoint: 17.0°C (63°F) [RH = 83%]
Pressure (altimeter): 30.09 inches Hg (1019.0 mb)
Winds: from the WNW (300 degrees) at 10 MPH (9 knots; 4.6 m/s)
Visibility: 6 or more miles (10+ km)
Ceiling: at least 12,000 feet AGL
Clouds: few clouds at 200 feet AGL
scattered clouds at 1500 feet AGL
Weather: no significant weather observed at this time

METAR text: GCXO 241900Z 28007KT 250V320 9999 FEW004 BKN015 22/18 Q1019 NOSIG
Conditions at: GCXO (TENERIFE/LOS ROD, ES) observed 1900 UTC 24 June 2019
Temperature: 22.0°C (72°F)
Dewpoint: 18.0°C (64°F) [RH = 78%]
Pressure (altimeter): 30.09 inches Hg (1019.0 mb)
Winds: from the W (280 degrees) at 8 MPH (7 knots; 3.6 m/s)
Visibility: 6 or more miles (10+ km)
Ceiling: 1500 feet AGL
Clouds: few clouds at 400 feet AGL
broken clouds at 1500 feet AGL
Weather: no significant weather observed at this time

METAR text: GCXO 241830Z VRB04KT 9999 FEW004 BKN015 23/19 Q1019 NOSIG
Conditions at: GCXO (TENERIFE/LOS ROD, ES) observed 1830 UTC 24 June 2019
Temperature: 23.0°C (73°F)
Dewpoint: 19.0°C (66°F) [RH = 78%]
Pressure (altimeter): 30.09 inches Hg (1019.0 mb)
Winds: variable direction winds at 5 MPH (4 knots; 2.1 m/s)
Visibility: 6 or more miles (10+ km)
Ceiling: 1500 feet AGL
Clouds: few clouds at 400 feet AGL
broken clouds at 1500 feet AGL
Weather: no significant weather observed at this time

METAR text: GCXO 241800Z VRB02KT 9999 FEW007 BKN015 23/19 Q1019 NOSIG
Conditions at: GCXO (TENERIFE/LOS ROD, ES) observed 1800 UTC 24 June 2019
Temperature: 23.0°C (73°F)
Dewpoint: 19.0°C (66°F) [RH = 78%]
Pressure (altimeter): 30.09 inches Hg (1019.0 mb)
Winds: variable direction winds at 2 MPH (2 knots; 1.0 m/s)
Visibility: 6 or more miles (10+ km)
Ceiling: 1500 feet AGL
Clouds: few clouds at 700 feet AGL
broken clouds at 1500 feet AGL
Weather: no significant weather observed at this time

METAR text: GCXO 241730Z VRB03KT 9999 FEW005 BKN015 22/18 Q1018 NOSIG
Conditions at: GCXO (TENERIFE/LOS ROD, ES) observed 1730 UTC 24 June 2019
Temperature: 22.0°C (72°F)
Dewpoint: 18.0°C (64°F) [RH = 78%]
Pressure (altimeter): 30.06 inches Hg (1018.0 mb)
Winds: variable direction winds at 3 MPH (3 knots; 1.5 m/s)
Visibility: 6 or more miles (10+ km)
Ceiling: 1500 feet AGL
Clouds: few clouds at 500 feet AGL
broken clouds at 1500 feet AGL
Weather: no significant weather observed at this time

METAR text: GCXO 241700Z 33007KT 280V010 9999 FEW007 SCT015 24/18 Q1018 NOSIG
Conditions at: GCXO (TENERIFE/LOS ROD, ES) observed 1700 UTC 24 June 2019
Temperature: 24.0°C (75°F)
Dewpoint: 18.0°C (64°F) [RH = 69%]
Pressure (altimeter): 30.06 inches Hg (1018.0 mb)
Winds: from the NNW (330 degrees) at 8 MPH (7 knots; 3.6 m/s)
Visibility: 6 or more miles (10+ km)
Ceiling: at least 12,000 feet AGL
Clouds: few clouds at 700 feet AGL
scattered clouds at 1500 feet AGL
Weather: no significant weather observed at this time

METAR text: GCXO 241630Z 32006KT 280V010 9999 FEW005 SCT015 23/17 Q1018 NOSIG
Conditions at: GCXO (TENERIFE/LOS ROD, ES) observed 1630 UTC 24 June 2019
Temperature: 23.0°C (73°F)
Dewpoint: 17.0°C (63°F) [RH = 69%]
Pressure (altimeter): 30.06 inches Hg (1018.0 mb)
Winds: from the NW (320 degrees) at 7 MPH (6 knots; 3.1 m/s)
Visibility: 6 or more miles (10+ km)
Ceiling: at least 12,000 feet AGL
Clouds: few clouds at 500 feet AGL
scattered clouds at 1500 feet AGL
Weather: no significant weather observed at this time

METAR text: GCXO 241600Z VRB03KT 9999 FEW005 SCT015 24/18 Q1019 NOSIG
Conditions at: GCXO (TENERIFE/LOS ROD, ES) observed 1600 UTC 24 June 2019
Temperature: 24.0°C (75°F)
Dewpoint: 18.0°C (64°F) [RH = 69%]
Pressure (altimeter): 30.09 inches Hg (1019.0 mb)
Winds: variable direction winds at 3 MPH (3 knots; 1.5 m/s)
Visibility: 6 or more miles (10+ km)
Ceiling: at least 12,000 feet AGL
Clouds: few clouds at 500 feet AGL
scattered clouds at 1500 feet AGL
Weather: no significant weather observed at this time

METAR text: GCXO 241530Z 09004G14KT 030V160 9999 FEW005 BKN012 22/19 Q1019 BECMG SCT015
Conditions at: GCXO (TENERIFE/LOS ROD, ES) observed 1530 UTC 24 June 2019
Temperature: 22.0°C (72°F)
Dewpoint: 19.0°C (66°F) [RH = 83%]
Pressure (altimeter): 30.09 inches Hg (1019.0 mb)
Winds: from the E (90 degrees) at 5 MPH (4 knots; 2.1 m/s)
gusting to 16 MPH (14 knots; 7.2 m/s)
Visibility: 6 or more miles (10+ km)
Ceiling: 1200 feet AGL
Clouds: few clouds at 500 feet AGL
broken clouds at 1200 feet AGL
Weather: no significant weather observed at this time

METAR text: GCXO 241500Z 16006KT 100V230 9999 2000NE PRFG FEW000 BKN010 22/19 Q1019 BECMG SCT015
Conditions at: GCXO (TENERIFE/LOS ROD, ES) observed 1500 UTC 24 June 2019
Temperature: 22.0°C (72°F)
Dewpoint: 19.0°C (66°F) [RH = 83%]
Pressure (altimeter): 30.09 inches Hg (1019.0 mb)
Winds: from the SSE (160 degrees) at 7 MPH (6 knots; 3.1 m/s)
Visibility: 6 or more miles (10+ km)
Ceiling: 1000 feet AGL
Clouds: few clouds at 0 feet AGL
broken clouds at 1000 feet AGL
Weather: PRFG  (partial fog)

METAR text: GCXO 241451Z 15006KT 100V230 8000 0100NE PRFG BKN000 OVC003 21/19 Q1019 BECMG SCT015
Conditions at: GCXO (TENERIFE/LOS ROD, ES) observed 1451 UTC 24 June 2019
Temperature: 21.0°C (70°F)
Dewpoint: 19.0°C (66°F) [RH = 88%]
Pressure (altimeter): 30.09 inches Hg (1019.0 mb)
Winds: from the SSE (150 degrees) at 7 MPH (6 knots; 3.1 m/s)
Visibility: 5 miles ( 8 km)
Ceiling: 0 feet AGL
Clouds: broken clouds at 0 feet AGL
overcast cloud deck at 300 feet AGL
Weather: PRFG  (partial fog)

METAR text: GCXO 241430Z 16007KT 080V210 9999 2000NE VCFG FEW000 BKN007 22/20 Q1019 NOSIG
Conditions at: GCXO (TENERIFE/LOS ROD, ES) observed 1430 UTC 24 June 2019
Temperature: 22.0°C (72°F)
Dewpoint: 20.0°C (68°F) [RH = 88%]
Pressure (altimeter): 30.09 inches Hg (1019.0 mb)
Winds: from the SSE (160 degrees) at 8 MPH (7 knots; 3.6 m/s)
Visibility: 6 or more miles (10+ km)
Ceiling: 700 feet AGL
Clouds: few clouds at 0 feet AGL
broken clouds at 700 feet AGL
Weather: VCFG  (fog in vicinity)

METAR text: GCXO 241400Z VRB03KT 9999 FEW005 BKN012 22/18 Q1019 NOSIG
Conditions at: GCXO (TENERIFE/LOS ROD, ES) observed 1400 UTC 24 June 2019
Temperature: 22.0°C (72°F)
Dewpoint: 18.0°C (64°F) [RH = 78%]
Pressure (altimeter): 30.09 inches Hg (1019.0 mb)
Winds: variable direction winds at 3 MPH (3 knots; 1.5 m/s)
Visibility: 6 or more miles (10+ km)
Ceiling: 1200 feet AGL
Clouds: few clouds at 500 feet AGL
broken clouds at 1200 feet AGL
Weather: no significant weather observed at this time

METAR text: GCXO 241330Z 13005KT 070V190 9999 FEW005 BKN020 22/18 Q1019 NOSIG
Conditions at: GCXO (TENERIFE/LOS ROD, ES) observed 1330 UTC 24 June 2019
Temperature: 22.0°C (72°F)
Dewpoint: 18.0°C (64°F) [RH = 78%]
Pressure (altimeter): 30.09 inches Hg (1019.0 mb)
Winds: from the SE (130 degrees) at 6 MPH (5 knots; 2.6 m/s)
Visibility: 6 or more miles (10+ km)
Ceiling: 2000 feet AGL
Clouds: few clouds at 500 feet AGL
broken clouds at 2000 feet AGL
Weather: no significant weather observed at this time

METAR text: GCXO 241300Z VRB05KT 9999 FEW005 BKN020 22/18 Q1019 NOSIG
Conditions at: GCXO (TENERIFE/LOS ROD, ES) observed 1300 UTC 24 June 2019
Temperature: 22.0°C (72°F)
Dewpoint: 18.0°C (64°F) [RH = 78%]
Pressure (altimeter): 30.09 inches Hg (1019.0 mb)
Winds: variable direction winds at 6 MPH (5 knots; 2.6 m/s)
Visibility: 6 or more miles (10+ km)
Ceiling: 2000 feet AGL
Clouds: few clouds at 500 feet AGL
broken clouds at 2000 feet AGL
Weather: no significant weather observed at this time

METAR text: GCXO 241230Z VRB05KT 9999 FEW005 SCT020 23/17 Q1019 NOSIG
Conditions at: GCXO (TENERIFE/LOS ROD, ES) observed 1230 UTC 24 June 2019
Temperature: 23.0°C (73°F)
Dewpoint: 17.0°C (63°F) [RH = 69%]
Pressure (altimeter): 30.09 inches Hg (1019.0 mb)
Winds: variable direction winds at 6 MPH (5 knots; 2.6 m/s)
Visibility: 6 or more miles (10+ km)
Ceiling: at least 12,000 feet AGL
Clouds: few clouds at 500 feet AGL
scattered clouds at 2000 feet AGL
Weather: no significant weather observed at this time

METAR text: GCXO 241200Z 10007KT 050V150 9999 FEW003 SCT020 23/17 Q1019 NOSIG
Conditions at: GCXO (TENERIFE/LOS ROD, ES) observed 1200 UTC 24 June 2019
Temperature: 23.0°C (73°F)
Dewpoint: 17.0°C (63°F) [RH = 69%]
Pressure (altimeter): 30.09 inches Hg (1019.0 mb)
Winds: from the E (100 degrees) at 8 MPH (7 knots; 3.6 m/s)
Visibility: 6 or more miles (10+ km)
Ceiling: at least 12,000 feet AGL
Clouds: few clouds at 300 feet AGL
scattered clouds at 2000 feet AGL
Weather: no significant weather observed at this time

METAR text: GCXO 241130Z 11007KT 060V190 9999 SCT020 22/17 Q1019 NOSIG
Conditions at: GCXO (TENERIFE/LOS ROD, ES) observed 1130 UTC 24 June 2019
Temperature: 22.0°C (72°F)
Dewpoint: 17.0°C (63°F) [RH = 73%]
Pressure (altimeter): 30.09 inches Hg (1019.0 mb)
Winds: from the ESE (110 degrees) at 8 MPH (7 knots; 3.6 m/s)
Visibility: 6 or more miles (10+ km)
Ceiling: at least 12,000 feet AGL
Clouds: scattered clouds at 2000 feet AGL
Weather: no significant weather observed at this time

METAR text: GCXO 241100Z 12007KT 080V210 9999 SCT020 22/16 Q1019 NOSIG
Conditions at: GCXO (TENERIFE/LOS ROD, ES) observed 1100 UTC 24 June 2019
Temperature: 22.0°C (72°F)
Dewpoint: 16.0°C (61°F) [RH = 69%]
Pressure (altimeter): 30.09 inches Hg (1019.0 mb)
Winds: from the ESE (120 degrees) at 8 MPH (7 knots; 3.6 m/s)
Visibility: 6 or more miles (10+ km)
Ceiling: at least 12,000 feet AGL
Clouds: scattered clouds at 2000 feet AGL
Weather: no significant weather observed at this time

METAR text: GCXO 241030Z 12007KT 080V170 9999 SCT020 21/17 Q1019 NOSIG
Conditions at: GCXO (TENERIFE/LOS ROD, ES) observed 1030 UTC 24 June 2019
Temperature: 21.0°C (70°F)
Dewpoint: 17.0°C (63°F) [RH = 78%]
Pressure (altimeter): 30.09 inches Hg (1019.0 mb)
Winds: from the ESE (120 degrees) at 8 MPH (7 knots; 3.6 m/s)
Visibility: 6 or more miles (10+ km)
Ceiling: at least 12,000 feet AGL
Clouds: scattered clouds at 2000 feet AGL
Weather: no significant weather observed at this time

METAR text: GCXO 241000Z 11006KT 060V190 9999 SCT005 22/17 Q1019 NOSIG
Conditions at: GCXO (TENERIFE/LOS ROD, ES) observed 1000 UTC 24 June 2019
Temperature: 22.0°C (72°F)
Dewpoint: 17.0°C (63°F) [RH = 73%]
Pressure (altimeter): 30.09 inches Hg (1019.0 mb)
Winds: from the ESE (110 degrees) at 7 MPH (6 knots; 3.1 m/s)
Visibility: 6 or more miles (10+ km)
Ceiling: at least 12,000 feet AGL
Clouds: scattered clouds at 500 feet AGL
Weather: no significant weather observed at this time

METAR text: GCXO 240930Z 12007KT 080V170 9999 FEW005 21/16 Q1019 NOSIG
Conditions at: GCXO (TENERIFE/LOS ROD, ES) observed 0930 UTC 24 June 2019
Temperature: 21.0°C (70°F)
Dewpoint: 16.0°C (61°F) [RH = 73%]
Pressure (altimeter): 30.09 inches Hg (1019.0 mb)
Winds: from the ESE (120 degrees) at 8 MPH (7 knots; 3.6 m/s)
Visibility: 6 or more miles (10+ km)
Ceiling: at least 12,000 feet AGL
Clouds: few clouds at 500 feet AGL
Weather: no significant weather observed at this time

METAR text: GCXO 240900Z 09004KT 030V120 9999 FEW005 21/16 Q1019 NOSIG
Conditions at: GCXO (TENERIFE/LOS ROD, ES) observed 0900 UTC 24 June 2019
Temperature: 21.0°C (70°F)
Dewpoint: 16.0°C (61°F) [RH = 73%]
Pressure (altimeter): 30.09 inches Hg (1019.0 mb)
Winds: from the E (90 degrees) at 5 MPH (4 knots; 2.1 m/s)
Visibility: 6 or more miles (10+ km)
Ceiling: at least 12,000 feet AGL
Clouds: few clouds at 500 feet AGL
Weather: no significant weather observed at this time

METAR text: GCXO 240830Z VRB02KT 9999 FEW005 21/16 Q1018 NOSIG
Conditions at: GCXO (TENERIFE/LOS ROD, ES) observed 0830 UTC 24 June 2019
Temperature: 21.0°C (70°F)
Dewpoint: 16.0°C (61°F) [RH = 73%]
Pressure (altimeter): 30.06 inches Hg (1018.0 mb)
Winds: variable direction winds at 2 MPH (2 knots; 1.0 m/s)
Visibility: 6 or more miles (10+ km)
Ceiling: at least 12,000 feet AGL
Clouds: few clouds at 500 feet AGL
Weather: no significant weather observed at this time

METAR text: GCXO 240800Z VRB01KT CAVOK 20/15 Q1018 NOSIG
Conditions at: GCXO (TENERIFE/LOS ROD, ES) observed 0800 UTC 24 June 2019
Temperature: 20.0°C (68°F)
Dewpoint: 15.0°C (59°F) [RH = 73%]
Pressure (altimeter): 30.06 inches Hg (1018.0 mb)
Winds: variable direction winds at 1 MPH (1 knots; 0.5 m/s)
Visibility: 6 or more miles (10+ km)
Ceiling: ceiling and visibility are OK
Clouds: unknown
Weather: no significant weather observed at this time

METAR text: GCXO 240730Z 13003KT 070V190 9999 FEW004 19/16 Q1018 NOSIG
Conditions at: GCXO (TENERIFE/LOS ROD, ES) observed 0730 UTC 24 June 2019
Temperature: 19.0°C (66°F)
Dewpoint: 16.0°C (61°F) [RH = 83%]
Pressure (altimeter): 30.06 inches Hg (1018.0 mb)
Winds: from the SE (130 degrees) at 3 MPH (3 knots; 1.5 m/s)
Visibility: 6 or more miles (10+ km)
Ceiling: at least 12,000 feet AGL
Clouds: few clouds at 400 feet AGL
Weather: no significant weather observed at this time

METAR text: GCXO 240700Z VRB02KT 9999 FEW004 17/16 Q1018 NOSIG
Conditions at: GCXO (TENERIFE/LOS ROD, ES) observed 0700 UTC 24 June 2019
Temperature: 17.0°C (63°F)
Dewpoint: 16.0°C (61°F) [RH = 94%]
Pressure (altimeter): 30.06 inches Hg (1018.0 mb)
Winds: variable direction winds at 2 MPH (2 knots; 1.0 m/s)
Visibility: 6 or more miles (10+ km)
Ceiling: at least 12,000 feet AGL
Clouds: few clouds at 400 feet AGL
Weather: no significant weather observed at this time

METAR text: GCXO 240630Z 26003KT 230V300 9999 FEW002 BKN010 16/16 Q1018 BECMG SCT010
Conditions at: GCXO (TENERIFE/LOS ROD, ES) observed 0630 UTC 24 June 2019
Temperature: 16.0°C (61°F)
Dewpoint: 16.0°C (61°F) [RH = 100%]
Pressure (altimeter): 30.06 inches Hg (1018.0 mb)
Winds: from the W (260 degrees) at 3 MPH (3 knots; 1.5 m/s)
Visibility: 6 or more miles (10+ km)
Ceiling: 1000 feet AGL
Clouds: few clouds at 200 feet AGL
broken clouds at 1000 feet AGL
Weather: no significant weather observed at this time

METAR text: GCXO 240621Z 27003KT 230V300 9999 FEW005 BKN012 16/15 Q1018 BECMG SCT012
Conditions at: GCXO (TENERIFE/LOS ROD, ES) observed 0621 UTC 24 June 2019
Temperature: 16.0°C (61°F)
Dewpoint: 15.0°C (59°F) [RH = 94%]
Pressure (altimeter): 30.06 inches Hg (1018.0 mb)
Winds: from the W (270 degrees) at 3 MPH (3 knots; 1.5 m/s)
Visibility: 6 or more miles (10+ km)
Ceiling: 1200 feet AGL
Clouds: few clouds at 500 feet AGL
broken clouds at 1200 feet AGL
Weather: no significant weather observed at this time

METAR text: GCXO 240600Z 28004KT 9999 FEW005 16/16 Q1018 NOSIG
Conditions at: GCXO (TENERIFE/LOS ROD, ES) observed 0600 UTC 24 June 2019
Temperature: 16.0°C (61°F)
Dewpoint: 16.0°C (61°F) [RH = 100%]
Pressure (altimeter): 30.06 inches Hg (1018.0 mb)
Winds: from the W (280 degrees) at 5 MPH (4 knots; 2.1 m/s)
Visibility: 6 or more miles (10+ km)
Ceiling: at least 12,000 feet AGL
Clouds: few clouds at 500 feet AGL
Weather: no significant weather observed at this time

METAR text: GCXO 240530Z 23003KT CAVOK 17/16 Q1018 NOSIG
Conditions at: GCXO (TENERIFE/LOS ROD, ES) observed 0530 UTC 24 June 2019
Temperature: 17.0°C (63°F)
Dewpoint: 16.0°C (61°F) [RH = 94%]
Pressure (altimeter): 30.06 inches Hg (1018.0 mb)
Winds: from the SW (230 degrees) at 3 MPH (3 knots; 1.5 m/s)
Visibility: 6 or more miles (10+ km)
Ceiling: ceiling and visibility are OK
Clouds: unknown
Weather: no significant weather observed at this time

METAR text: GCXO 240500Z 24004KT 210V280 9999 FEW003 17/16 Q1018 NOSIG
Conditions at: GCXO (TENERIFE/LOS ROD, ES) observed 0500 UTC 24 June 2019
Temperature: 17.0°C (63°F)
Dewpoint: 16.0°C (61°F) [RH = 94%]
Pressure (altimeter): 30.06 inches Hg (1018.0 mb)
Winds: from the WSW (240 degrees) at 5 MPH (4 knots; 2.1 m/s)
Visibility: 6 or more miles (10+ km)
Ceiling: at least 12,000 feet AGL
Clouds: few clouds at 300 feet AGL
Weather: no significant weather observed at this time

METAR text: GCXO 240430Z AUTO 26005KT 9999 SCT007 17/16 Q1018
Conditions at: GCXO (TENERIFE/LOS ROD, ES) observed 0430 UTC 24 June 2019
Temperature: 17.0°C (63°F)
Dewpoint: 16.0°C (61°F) [RH = 94%]
Pressure (altimeter): 30.06 inches Hg (1018.0 mb)
Winds: from the W (260 degrees) at 6 MPH (5 knots; 2.6 m/s)
Visibility: 6 or more miles (10+ km)
Ceiling: at least 12,000 feet AGL
Clouds: scattered clouds at 700 feet AGL
Weather: no significant weather observed at this time

METAR text: GCXO 240400Z AUTO 26004KT 9999 FEW006 17/16 Q1018
Conditions at: GCXO (TENERIFE/LOS ROD, ES) observed 0400 UTC 24 June 2019
Temperature: 17.0°C (63°F)
Dewpoint: 16.0°C (61°F) [RH = 94%]
Pressure (altimeter): 30.06 inches Hg (1018.0 mb)
Winds: from the W (260 degrees) at 5 MPH (4 knots; 2.1 m/s)
Visibility: 6 or more miles (10+ km)
Ceiling: at least 12,000 feet AGL
Clouds: few clouds at 600 feet AGL
Weather: no significant weather observed at this time

METAR text: GCXO 240330Z AUTO 24003KT 210V300 9999 SCT008 17/16 Q1018
Conditions at: GCXO (TENERIFE/LOS ROD, ES) observed 0330 UTC 24 June 2019
Temperature: 17.0°C (63°F)
Dewpoint: 16.0°C (61°F) [RH = 94%]
Pressure (altimeter): 30.06 inches Hg (1018.0 mb)
Winds: from the WSW (240 degrees) at 3 MPH (3 knots; 1.5 m/s)
Visibility: 6 or more miles (10+ km)
Ceiling: at least 12,000 feet AGL
Clouds: scattered clouds at 800 feet AGL
Weather: no significant weather observed at this time

METAR text: GCXO 240300Z AUTO 28007KT 9999 FEW010 17/16 Q1018
Conditions at: GCXO (TENERIFE/LOS ROD, ES) observed 0300 UTC 24 June 2019
Temperature: 17.0°C (63°F)
Dewpoint: 16.0°C (61°F) [RH = 94%]
Pressure (altimeter): 30.06 inches Hg (1018.0 mb)
Winds: from the W (280 degrees) at 8 MPH (7 knots; 3.6 m/s)
Visibility: 6 or more miles (10+ km)
Ceiling: at least 12,000 feet AGL
Clouds: few clouds at 1000 feet AGL
Weather: no significant weather observed at this time

METAR text: GCXO 240230Z AUTO 29006KT 9999 SCT011 17/16 Q1018
Conditions at: GCXO (TENERIFE/LOS ROD, ES) observed 0230 UTC 24 June 2019
Temperature: 17.0°C (63°F)
Dewpoint: 16.0°C (61°F) [RH = 94%]
Pressure (altimeter): 30.06 inches Hg (1018.0 mb)
Winds: from the WNW (290 degrees) at 7 MPH (6 knots; 3.1 m/s)
Visibility: 6 or more miles (10+ km)
Ceiling: at least 12,000 feet AGL
Clouds: scattered clouds at 1100 feet AGL
Weather: no significant weather observed at this time

METAR text: GCXO 240200Z AUTO 28010KT 9999 BKN011 17/16 Q1018
Conditions at: GCXO (TENERIFE/LOS ROD, ES) observed 0200 UTC 24 June 2019
Temperature: 17.0°C (63°F)
Dewpoint: 16.0°C (61°F) [RH = 94%]
Pressure (altimeter): 30.06 inches Hg (1018.0 mb)
Winds: from the W (280 degrees) at 12 MPH (10 knots; 5.1 m/s)
Visibility: 6 or more miles (10+ km)
Ceiling: 1100 feet AGL
Clouds: broken clouds at 1100 feet AGL
Weather: no significant weather observed at this time

Forecast for: AMD
Text: TAF AMD GCXO 250933Z 2509/2609 31010KT 3000 BCFG OVC002 TX23/2514Z TN15/2606Z
Forecast period: 0900 to 1300 UTC 25 June 2019
Forecast type: FROM: standard forecast or significant change
Winds: from the NW (310 degrees) at 12 MPH (10 knots; 5.1 m/s)
Visibility: 1.86 miles (2.99 km)
Ceiling: 200 feet AGL
Clouds: overcast cloud deck at 200 feet AGL
Weather: BCFG  (patches of fog)
Text: PROB40
Forecast period: 0900 to 1300 UTC 25 June 2019
Forecast type: TEMPORARY: The following changes expected for less than half the time period
Visibility: 0.62 miles (1.00 km)
Ceiling: unknown
Clouds: missing
Weather: DZ BCFG  (moderate drizzle, patches of fog)
Text: TEMPO 2509/2513 1000 DZ BCFG
Forecast period: 1300 UTC 25 June 2019 to 0900 UTC 26 June 2019
Forecast type: BECOMING: Conditions expected to become as follows by 1500 UTC 25 June 2019
Winds: from the NW (310 degrees) at 12 MPH (10 knots; 5.1 m/s)
Visibility: 6 or more miles 10+ km)
Ceiling: 600 feet AGL
Clouds: broken clouds at 600 feet AGL
Weather: NSW  (no significant weather)
Text: BECMG 2513/2515 9999 NSW BKN006
Forecast period: 1800 UTC 25 June 2019 to 0900 UTC 26 June 2019
Forecast type: TEMPORARY: The following changes expected for less than half the time period
Visibility: 1.86 miles (2.99 km)
Ceiling: 300 feet AGL
Clouds: broken clouds at 300 feet AGL
Weather: BCFG  (patches of fog)